Terminal Aerodrome Forecast
Issued by NWS Knoxville/Tri Cities, TN

Current Version | Previous Version | Text Only | Print | Product List | Glossary On
Versions: 1 2 3 4 5 6 7 8 9 10 11 12 13 14 15 16 17 18 19 20 21 22 23 24 25 26 27 28 29 30 31 32 33 34 35 36 37 38 39
000
FTUS44 KMRX 191731
TAFTYS
TAF
KTYS 191731Z 1918/2018 07006KT 5SM -SHRA BR SCT025 OVC035
     FM191900 21012G20KT 5SM -SHRA BR SCT015 BKN035 OVC100
     FM192030 22016G27KT P6SM BKN040 BKN090
     FM200000 23013KT P6SM VCTS BKN020CB OVC050
     FM201300 23015G27KT P6SM VCSH BKN040=

USA.gov is the U.S. government's official web portal to all federal, state and local government web resources and services.